Time;durP1;ratioP1;P1;durP2;ratioP2;P2;SDS_P1;SDS_P2;PMS_P1;PMS_P2;Temp;Humidity;BMP_temperature;BMP_pressure;BME280_temperature;BME280_humidity;BME280_pressure;Samples;Min_cycle;Max_cycle;Signal;HPM_P1;HPM_P2
2023/06/03 00:09:06;;;;;;;8.80;3.88;;;;;;;17.75;48.09;99206.31;7486784;38;20285;31
2023/06/03 00:14:41;;;;;;;6.27;3.10;;;;;;;17.82;48.26;99209.03;7464526;39;20238;31
2023/06/03 00:20:16;;;;;;;7.73;3.70;;;;;;;17.65;48.30;99205.06;7469316;39;20238;31
2023/06/03 00:25:53;;;;;;;6.63;3.40;;;;;;;17.61;48.43;99217.44;7441335;39;20258;31
2023/06/03 00:31:28;;;;;;;8.60;3.57;;;;;;;17.59;47.62;99206.78;7442822;39;20755;31
2023/06/03 00:36:48;;;;;;;6.60;3.25;;;;;;;17.62;47.79;99202.78;7384345;39;20258;31
2023/06/03 00:42:22;;;;;;;5.65;3.20;;;;;;;17.60;47.68;99205.69;7367796;39;20351;31
2023/06/03 00:47:58;;;;;;;8.60;3.40;;;;;;;17.51;48.05;99201.47;7381863;39;20362;31
2023/06/03 00:53:19;;;;;;;7.63;3.53;;;;;;;17.33;48.81;99201.31;7336318;39;20247;31
2023/06/03 00:58:55;;;;;;;10.13;3.53;;;;;;;17.24;49.20;99194.38;7377339;39;20383;31
2023/06/03 01:04:30;;;;;;;12.90;3.63;;;;;;;17.16;49.03;99195.41;7423024;39;20246;31
2023/06/03 01:10:08;;;;;;;7.32;3.40;;;;;;;17.12;48.89;99188.72;7427852;39;20235;31
2023/06/03 01:15:41;;;;;;;7.13;3.37;;;;;;;17.21;49.13;99197.50;7489675;39;20237;31
2023/06/03 01:21:16;;;;;;;10.00;2.80;;;;;;;17.17;49.36;99188.09;7454391;39;21353;31
2023/06/03 01:26:53;;;;;;;7.10;2.87;;;;;;;17.13;49.88;99174.91;7448089;39;20223;31
2023/06/03 01:32:29;;;;;;;8.53;3.57;;;;;;;17.11;49.30;99176.16;7451893;39;20265;31
2023/06/03 01:38:05;;;;;;;5.60;2.90;;;;;;;17.09;48.99;99181.81;7373704;39;20238;31
2023/06/03 01:43:41;;;;;;;8.00;3.30;;;;;;;17.03;49.69;99187.22;7422677;39;20238;31
2023/06/03 01:49:17;;;;;;;8.40;2.95;;;;;;;16.91;49.82;99186.19;7380609;39;20705;31
2023/06/03 01:54:52;;;;;;;6.90;2.80;;;;;;;16.88;49.10;99189.31;7379056;39;20414;31
2023/06/03 02:06:31;;;;;;;5.30;2.70;;;;;;;16.86;49.98;99180.50;7442198;39;20401;31
2023/06/03 02:17:11;;;;;;;7.90;3.10;;;;;;;16.89;49.12;99191.84;7475863;39;20253;31
2023/06/03 02:27:50;;;;;;;13.75;3.00;;;;;;;16.90;49.43;99185.34;7497971;38;20284;31
2023/06/03 02:38:29;;;;;;;11.63;3.10;;;;;;;16.73;50.12;99197.66;7468123;39;20257;31
2023/06/03 02:44:06;;;;;;;7.30;3.10;;;;;;;16.47;50.73;99197.56;7489444;39;20266;31
2023/06/03 02:49:26;;;;;;;9.70;3.20;;;;;;;16.51;50.76;99204.28;7489228;39;20234;31
2023/06/03 02:55:01;;;;;;;8.00;2.90;;;;;;;16.47;51.15;99203.00;7448919;39;20276;31
2023/06/03 03:00:36;;;;;;;6.33;2.80;;;;;;;16.28;51.87;99203.78;7488138;38;20330;31
2023/06/03 03:05:56;;;;;;;6.43;3.10;;;;;;;16.23;52.05;99207.13;7403572;39;20698;31
2023/06/03 03:11:16;;;;;;;7.17;3.17;;;;;;;16.13;52.24;99212.91;7404266;39;20241;31
2023/06/03 03:16:52;;;;;;;6.00;3.20;;;;;;;16.00;53.08;99206.56;7401851;39;20252;31
2023/06/03 03:22:27;;;;;;;6.60;3.33;;;;;;;15.90;53.60;99217.81;7368975;39;20740;31
2023/06/03 03:27:47;;;;;;;7.33;2.90;;;;;;;15.91;52.86;99214.06;7400231;39;20268;31
2023/06/03 03:33:24;;;;;;;8.20;3.20;;;;;;;15.87;52.80;99217.38;7398706;39;20263;31
2023/06/03 03:38:44;;;;;;;7.96;2.98;;;;;;;15.86;52.61;99218.41;7473549;38;20764;31
2023/06/03 03:44:04;;;;;;;7.90;3.30;;;;;;;15.91;52.78;99215.94;7464475;39;21360;31
2023/06/03 03:49:39;;;;;;;7.40;3.10;;;;;;;15.86;53.50;99219.25;7420778;39;20699;31
2023/06/03 04:00:15;;;;;;;4.00;3.00;;;;;;;15.69;54.39;99210.56;7449641;39;20261;31
2023/06/03 04:05:51;;;;;;;5.15;2.75;;;;;;;15.58;54.48;99204.84;7423192;39;20317;31
2023/06/03 04:11:32;;;;;;;4.90;3.40;;;;;;;15.55;54.52;99207.97;7403445;39;20316;31
2023/06/03 04:17:09;;;;;;;6.30;3.40;;;;;;;15.59;54.24;99203.81;7400788;39;20679;31
2023/06/03 04:22:44;;;;;;;5.60;2.90;;;;;;;15.59;55.83;99204.66;7426752;39;20348;31
2023/06/03 04:28:05;;;;;;;7.50;3.20;;;;;;;15.63;55.06;99210.53;7436987;39;20720;31
2023/06/03 04:38:45;;;;;;;7.10;3.27;;;;;;;15.58;55.31;99213.81;7423170;39;20333;31
2023/06/03 04:44:21;;;;;;;6.80;3.25;;;;;;;15.64;55.58;99217.63;7442027;39;20318;31
2023/06/03 04:49:58;;;;;;;10.53;3.43;;;;;;;15.76;54.89;99225.03;7447491;39;20394;31
2023/06/03 04:55:32;;;;;;;6.25;3.10;;;;;;;15.86;55.39;99207.53;7425679;39;20325;31
2023/06/03 05:00:52;;;;;;;10.00;3.40;;;;;;;15.91;54.48;99208.63;7424828;39;20354;31
2023/06/03 05:06:28;;;;;;;8.20;3.10;;;;;;;15.92;55.40;99210.31;7412626;39;21430;31
2023/06/03 05:12:03;;;;;;;7.80;3.17;;;;;;;15.96;55.87;99210.72;7421816;39;20439;31
2023/06/03 05:17:23;;;;;;;7.30;3.25;;;;;;;16.09;56.16;99200.78;7401492;39;20236;31
2023/06/03 05:22:43;;;;;;;7.80;3.73;;;;;;;16.17;55.95;99203.31;7417534;39;20846;31
2023/06/03 05:33:24;;;;;;;6.30;3.30;;;;;;;16.24;56.18;99209.59;7445459;39;20275;31
2023/06/03 05:39:00;;;;;;;9.65;3.25;;;;;;;16.42;55.41;99210.94;7450511;39;20325;31
2023/06/03 05:44:20;;;;;;;8.20;3.80;;;;;;;16.56;54.91;99212.66;7464182;39;20364;31
2023/06/03 05:55:01;;;;;;;7.43;3.77;;;;;;;16.62;56.02;99212.72;7466487;39;20372;31
2023/06/03 06:00:36;;;;;;;6.63;3.40;;;;;;;16.84;55.49;99220.75;7400118;39;20278;31
2023/06/03 06:11:16;;;;;;;6.90;3.60;;;;;;;17.08;54.70;99218.25;7419893;39;20295;31
2023/06/03 06:21:40;;;;;;;7.00;3.50;;;;;;;17.45;53.39;99218.69;7472872;39;20399;31
2023/06/03 06:27:17;;;;;;;8.37;3.87;;;;;;;17.56;53.42;99226.22;7465876;39;20268;31
2023/06/03 06:32:50;;;;;;;9.87;3.80;;;;;;;17.64;53.19;99217.84;7490695;38;20230;31
2023/06/03 06:38:25;;;;;;;5.97;3.63;;;;;;;17.81;52.50;99216.41;7443120;39;20234;31
2023/06/03 06:44:01;;;;;;;8.20;3.97;;;;;;;17.85;52.49;99212.19;7464285;39;20256;31
2023/06/03 06:49:36;;;;;;;7.70;3.40;;;;;;;18.07;51.98;99212.75;7442010;39;20241;31
2023/06/03 06:55:08;;;;;;;5.78;3.92;;;;;;;18.20;52.12;99212.72;7215818;39;21141;31
2023/06/03 07:00:45;;;;;;;5.90;3.30;;;;;;;18.23;52.19;99219.62;7379518;39;20266;31
2023/06/03 07:11:09;;;;;;;9.27;4.00;;;;;;;18.61;51.50;99215.06;7400807;39;20401;31
2023/06/03 07:16:46;;;;;;;10.60;3.40;;;;;;;18.66;51.13;99212.53;7409223;39;21300;31
2023/06/03 07:22:21;;;;;;;6.90;3.80;;;;;;;18.67;51.33;99210.66;7409455;39;20250;31
2023/06/03 07:27:56;;;;;;;6.90;3.90;;;;;;;18.87;51.42;99212.19;7427325;39;20260;31
2023/06/03 07:33:38;;;;;;;6.33;3.97;;;;;;;18.99;50.84;99214.25;7400391;39;20268;31
2023/06/03 07:39:11;;;;;;;11.40;4.60;;;;;;;19.24;51.10;99215.94;7358514;39;20317;31
2023/06/03 07:44:50;;;;;;;8.60;4.00;;;;;;;19.46;50.02;99216.44;7348707;39;20339;31
2023/06/03 07:50:28;;;;;;;9.17;4.20;;;;;;;19.60;50.63;99220.72;7397276;39;20262;31
2023/06/03 07:56:00;;;;;;;7.45;4.00;;;;;;;19.63;50.50;99224.91;7434082;39;20367;31
2023/06/03 08:01:32;;;;;;;8.40;3.83;;;;;;;19.91;49.64;99229.91;7443606;39;20349;31
2023/06/03 08:07:05;;;;;;;9.00;4.25;;;;;;;19.98;50.26;99231.50;7458351;39;20265;31
2023/06/03 08:12:40;;;;;;;6.97;4.30;;;;;;;20.16;49.48;99242.47;7416123;39;20357;31
2023/06/03 08:18:00;;;;;;;7.95;4.15;;;;;;;20.31;49.45;99224.88;7395058;39;20786;31
2023/06/03 08:28:40;;;;;;;7.75;3.90;;;;;;;20.66;48.50;99236.84;7381160;39;20289;31
2023/06/03 08:39:16;;;;;;;11.20;4.15;;;;;;;21.12;47.00;99233.44;7365230;39;20267;31
2023/06/03 08:44:47;;;;;;;10.25;4.40;;;;;;;21.18;47.21;99227.06;7436956;39;20333;31
2023/06/03 08:50:19;;;;;;;7.95;4.18;;;;;;;21.36;47.10;99242.62;7454585;39;20343;31
2023/06/03 08:55:40;;;;;;;6.95;4.28;;;;;;;21.45;46.40;99235.72;7485078;39;20329;31
2023/06/03 09:01:17;;;;;;;7.65;3.90;;;;;;;21.54;46.40;99240.59;7463829;39;20250;31
2023/06/03 09:06:49;;;;;;;10.50;3.90;;;;;;;21.88;46.19;99238.16;7459347;39;20377;31
2023/06/03 09:12:21;;;;;;;8.34;4.56;;;;;;;22.11;46.14;99240.94;7438430;39;20228;31
2023/06/03 09:17:52;;;;;;;6.50;4.35;;;;;;;22.17;45.18;99239.94;7397290;39;20263;31
2023/06/03 09:23:24;;;;;;;6.82;3.90;;;;;;;22.15;44.77;99231.13;7359629;39;20255;31
2023/06/03 09:28:42;;;;;;;9.82;3.85;;;;;;;22.26;45.28;99224.78;7340441;39;20300;31
2023/06/03 09:34:15;;;;;;;7.85;4.62;;;;;;;22.53;44.95;99227.81;7348557;39;20336;31
2023/06/03 09:44:55;;;;;;;10.10;4.43;;;;;;;22.76;43.98;99235.19;7443171;39;20844;31
2023/06/03 09:55:32;;;;;;;6.35;4.00;;;;;;;23.15;44.34;99226.06;7459338;39;21294;31
2023/06/03 10:06:06;;;;;;;7.50;4.00;;;;;;;23.60;42.55;99227.97;7423275;39;21350;31
2023/06/03 10:16:43;;;;;;;8.35;3.85;;;;;;;23.80;42.46;99229.13;7428829;38;21014;31
2023/06/03 10:22:16;;;;;;;7.70;4.25;;;;;;;23.83;42.42;99229.72;7437441;39;20242;31
2023/06/03 10:27:47;;;;;;;5.10;3.65;;;;;;;23.97;41.71;99212.56;7371495;39;20332;31
2023/06/03 10:33:18;;;;;;;5.35;3.67;;;;;;;24.12;41.28;99214.72;7356681;39;20412;31
2023/06/03 10:38:50;;;;;;;7.93;3.95;;;;;;;24.07;41.21;99212.72;7366231;39;20282;31
2023/06/03 10:44:22;;;;;;;7.82;3.75;;;;;;;24.41;41.78;99201.63;7418461;39;21128;31
2023/06/03 10:49:54;;;;;;;9.10;4.46;;;;;;;24.48;40.77;99203.13;7420266;39;21095;31
2023/06/03 10:55:30;;;;;;;8.85;4.00;;;;;;;24.67;41.04;99201.69;7470467;39;20325;31
2023/06/03 11:01:07;;;;;;;6.75;3.92;;;;;;;24.82;40.31;99208.47;7440954;39;20294;31
2023/06/03 11:06:56;;;;;;;6.68;3.72;;;;;;;24.96;40.31;99207.84;7418630;39;20242;31
2023/06/03 11:12:16;;;;;;;7.10;3.60;;;;;;;25.00;40.74;99206.25;7354659;39;20251;31
2023/06/03 11:17:36;;;;;;;9.32;3.60;;;;;;;25.20;39.97;99200.06;7353414;39;20458;31
2023/06/03 11:23:09;;;;;;;6.62;4.18;;;;;;;25.18;40.39;99195.94;7366930;39;20257;31
2023/06/03 11:28:41;;;;;;;7.74;4.18;;;;;;;25.44;39.59;99184.03;7380051;39;20240;31
2023/06/03 11:34:35;;;;;;;6.15;4.25;;;;;;;25.73;38.88;99182.59;7294677;39;20275;31
2023/06/03 11:40:17;;;;;;;6.15;3.60;;;;;;;25.70;39.75;99194.19;7319202;39;20429;31
2023/06/03 11:45:33;;;;;;;8.00;3.67;;;;;;;25.73;38.24;99184.53;7341539;39;20519;31
2023/06/03 11:51:04;;;;;;;10.97;4.33;;;;;;;25.60;39.14;99173.94;7414526;39;20290;31
2023/06/03 11:56:38;;;;;;;10.35;4.00;;;;;;;25.81;38.98;99173.00;7390079;39;20304;31
2023/06/03 12:02:07;;;;;;;7.56;3.98;;;;;;;26.00;38.55;99168.69;7421596;39;20436;31
2023/06/03 12:07:24;;;;;;;6.45;4.18;;;;;;;26.15;39.06;99163.28;7419374;39;20270;31
2023/06/03 12:13:03;;;;;;;10.75;4.50;;;;;;;26.23;38.53;99168.31;7375340;39;20277;31
2023/06/03 12:18:39;;;;;;;8.52;4.45;;;;;;;26.43;38.13;99146.28;7379960;39;20250;31
2023/06/03 12:24:13;;;;;;;7.55;4.30;;;;;;;26.74;38.71;99149.13;7387688;39;20329;31
2023/06/03 12:29:49;;;;;;;7.60;4.65;;;;;;;26.59;37.68;99155.44;7421284;39;20243;31
2023/06/03 12:35:24;;;;;;;5.90;4.05;;;;;;;26.60;38.51;99159.88;7335359;39;20332;31
2023/06/03 12:40:45;;;;;;;9.38;4.47;;;;;;;26.47;37.44;99143.78;7400554;39;20480;31
2023/06/03 12:46:39;;;;;;;10.10;4.55;;;;;;;26.59;37.55;99147.13;7398226;39;20475;31
2023/06/03 12:52:24;;;;;;;7.28;4.85;;;;;;;26.51;37.75;99138.53;7283300;39;20291;31
2023/06/03 12:57:58;;;;;;;6.25;4.53;;;;;;;26.67;37.06;99127.28;7273394;40;20272;31
2023/06/03 13:08:33;;;;;;;5.35;4.07;;;;;;;26.30;37.12;99121.91;7308986;39;21140;31
2023/06/03 13:13:53;;;;;;;7.70;4.18;;;;;;;26.48;37.44;99128.03;7351072;39;20330;31
2023/06/03 13:19:22;;;;;;;6.95;4.10;;;;;;;26.90;37.37;99114.88;7398985;39;20238;31
2023/06/03 13:24:50;;;;;;;5.82;4.25;;;;;;;27.00;36.32;99114.06;7378008;39;20247;31
2023/06/03 13:30:27;;;;;;;6.93;4.25;;;;;;;27.06;37.02;99112.97;7354558;39;20274;31
2023/06/03 13:35:56;;;;;;;6.53;4.30;;;;;;;27.07;37.11;99106.34;7159955;39;20306;31
2023/06/03 13:41:13;;;;;;;5.32;3.97;;;;;;;26.64;37.43;99113.12;7378023;39;20262;31
2023/06/03 13:46:46;;;;;;;7.03;4.07;;;;;;;26.75;37.70;99112.91;7366782;39;20402;31
2023/06/03 13:57:10;;;;;;;5.18;3.80;;;;;;;27.10;37.04;99114.06;7400159;39;20944;31
2023/06/03 14:07:47;;;;;;;6.72;4.25;;;;;;;27.29;37.12;99101.34;7439349;39;21260;31
2023/06/03 14:18:23;;;;;;;4.35;3.35;;;;;;;27.63;35.67;99091.38;7436763;39;21904;31
2023/06/03 14:28:58;;;;;;;7.85;5.25;;;;;;;27.18;34.87;99083.91;7437652;39;21145;31
2023/06/03 14:34:18;;;;;;;6.18;3.95;;;;;;;27.52;35.09;99080.56;7397833;39;20307;31
2023/06/03 14:39:50;;;;;;;6.95;4.82;;;;;;;27.68;35.43;99074.75;7426674;39;20448;31
2023/06/03 14:45:24;;;;;;;8.43;4.33;;;;;;;27.47;35.12;99086.91;7418384;39;20238;31
2023/06/03 14:50:56;;;;;;;6.05;4.15;;;;;;;26.90;36.54;99079.75;7406414;39;20243;31
2023/06/03 14:56:13;;;;;;;4.50;3.85;;;;;;;26.88;34.29;99073.69;7378148;39;20434;31
2023/06/03 15:01:49;;;;;;;5.43;3.70;;;;;;;27.00;34.59;99058.72;7403493;39;20488;31
2023/06/03 15:12:47;;;;;;;6.65;3.95;;;;;;;27.33;34.80;99047.09;7399028;39;21126;31
2023/06/03 15:18:20;;;;;;;7.35;4.15;;;;;;;27.30;35.02;99054.00;7385558;39;20294;31
2023/06/03 15:28:42;;;;;;;6.83;4.10;;;;;;;27.35;34.92;99050.38;7425380;39;20257;31
2023/06/03 15:34:15;;;;;;;6.28;4.05;;;;;;;27.24;34.71;99052.38;7466770;39;20264;31
2023/06/03 15:39:36;;;;;;;7.75;3.90;;;;;;;27.27;34.59;99046.25;7474631;39;20234;31
2023/06/03 15:45:10;;;;;;;8.50;4.06;;;;;;;27.44;34.14;99051.47;7463281;39;20258;31
2023/06/03 15:50:46;;;;;;;8.70;4.18;;;;;;;27.42;34.31;99050.94;7441241;39;20493;31
2023/06/03 15:56:07;;;;;;;7.57;4.20;;;;;;;27.19;33.82;99051.53;7440358;39;20242;31
2023/06/03 16:01:27;;;;;;;5.13;3.83;;;;;;;26.84;34.50;99042.09;7438405;39;20256;31
2023/06/03 16:06:57;;;;;;;5.12;3.78;;;;;;;26.83;34.23;99037.66;7440821;39;20234;31
2023/06/03 16:12:32;;;;;;;5.15;3.95;;;;;;;27.08;33.88;99028.56;7436603;39;20299;31
2023/06/03 16:17:50;;;;;;;5.47;3.87;;;;;;;27.16;34.79;99030.75;7420577;39;20251;31
2023/06/03 16:23:19;;;;;;;7.30;4.00;;;;;;;27.10;33.94;99014.44;7441670;39;21114;31
2023/06/03 16:45:24;;;;;;;7.40;3.90;;;;;;;26.56;34.33;99020.50;7502140;39;20274;31
2023/06/03 16:50:55;;;;;;;8.00;4.20;;;;;;;26.53;35.01;99026.59;7428953;39;21234;31
2023/06/03 16:56:16;;;;;;;8.75;4.28;;;;;;;26.43;35.08;99024.63;7424559;39;20290;31
2023/06/03 17:01:47;;;;;;;5.62;3.92;;;;;;;26.05;35.02;99027.81;7425883;39;21136;31
2023/06/03 17:07:21;;;;;;;6.28;3.92;;;;;;;25.75;35.11;99042.34;7404875;39;20262;31
2023/06/03 17:12:56;;;;;;;4.82;3.96;;;;;;;25.58;35.32;99038.94;7424629;39;20253;31
2023/06/03 17:18:33;;;;;;;6.15;3.75;;;;;;;25.47;36.13;99045.47;7444682;39;20288;31
2023/06/03 17:28:54;;;;;;;6.97;3.95;;;;;;;25.32;36.39;99043.44;7484573;39;21479;31
2023/06/03 17:39:29;;;;;;;4.75;4.00;;;;;;;25.08;35.62;99053.19;7442069;39;21343;31
2023/06/03 17:44:46;;;;;;;6.47;3.60;;;;;;;24.98;35.77;99050.34;7423826;39;20281;31
2023/06/03 17:50:03;;;;;;;5.25;3.85;;;;;;;24.83;35.75;99056.56;7420780;39;20277;31
2023/06/03 17:55:38;;;;;;;5.15;3.90;;;;;;;24.68;36.61;99048.97;7440650;39;20295;31
2023/06/03 18:01:10;;;;;;;8.76;4.00;;;;;;;24.53;36.49;99059.84;7420094;39;20430;31
2023/06/03 18:06:42;;;;;;;6.66;4.12;;;;;;;24.42;36.71;99068.28;7397314;39;20475;31
2023/06/03 18:12:15;;;;;;;7.04;3.66;;;;;;;24.37;36.84;99063.53;7420809;39;20360;31
2023/06/03 18:17:37;;;;;;;8.13;3.60;;;;;;;24.22;36.76;99066.94;7375934;39;20244;31
2023/06/03 18:23:10;;;;;;;5.52;3.64;;;;;;;24.14;36.92;99070.13;7397525;39;20254;31
2023/06/03 18:28:46;;;;;;;7.03;3.90;;;;;;;24.13;36.85;99078.66;7378610;39;20343;31
2023/06/03 18:34:21;;;;;;;6.92;3.52;;;;;;;24.05;35.94;99081.84;7411977;39;20246;31
2023/06/03 18:39:57;;;;;;;4.70;3.48;;;;;;;23.97;35.70;99087.81;7397394;39;20247;31
2023/06/03 18:45:29;;;;;;;5.47;4.03;;;;;;;23.83;36.19;99083.78;7447963;38;20803;31
2023/06/03 18:50:49;;;;;;;9.15;4.15;;;;;;;23.88;36.68;99089.34;7487097;38;20266;31
2023/06/03 18:56:21;;;;;;;6.07;3.95;;;;;;;23.89;37.54;99091.03;7459843;39;20244;31
2023/06/03 19:01:57;;;;;;;5.80;3.80;;;;;;;23.78;37.16;99096.38;7465041;39;20260;31
2023/06/03 19:07:32;;;;;;;10.50;4.10;;;;;;;23.61;37.16;99100.25;7464412;39;20250;31
2023/06/03 19:13:07;;;;;;;5.22;3.85;;;;;;;23.50;37.97;99109.47;7423445;39;20269;31
2023/06/03 19:18:43;;;;;;;7.10;4.10;;;;;;;23.35;38.49;99116.34;7381823;39;20247;31
2023/06/03 19:24:00;;;;;;;6.20;3.92;;;;;;;23.22;38.31;99124.94;7420306;39;20254;31
2023/06/03 19:29:32;;;;;;;9.50;4.00;;;;;;;23.15;38.64;99127.03;7399398;39;21530;31
2023/06/03 19:35:04;;;;;;;6.12;3.90;;;;;;;23.01;38.27;99131.19;7390761;39;20440;31
2023/06/03 19:40:39;;;;;;;6.03;3.92;;;;;;;22.83;38.13;99128.66;7377232;39;20255;31
2023/06/03 19:46:11;;;;;;;5.85;3.70;;;;;;;22.79;38.65;99144.00;7335191;39;20267;31
2023/06/03 19:51:47;;;;;;;6.70;3.75;;;;;;;22.67;39.04;99141.28;7304386;39;20514;31
2023/06/03 19:57:20;;;;;;;5.25;3.30;;;;;;;22.57;38.56;99153.97;7329507;39;20515;31
2023/06/03 20:02:54;;;;;;;5.50;3.60;;;;;;;22.43;38.70;99162.50;7354213;39;20271;31
2023/06/03 20:08:27;;;;;;;8.88;3.28;;;;;;;22.25;38.25;99164.59;7396750;39;20278;31
2023/06/03 20:19:03;;;;;;;7.37;2.95;;;;;;;22.03;37.85;99161.66;7417151;39;21380;31
2023/06/03 20:29:40;;;;;;;3.33;2.33;;;;;;;21.85;38.04;99178.25;7419689;39;20380;31
2023/06/03 20:40:16;;;;;;;5.45;2.20;;;;;;;21.66;37.78;99183.03;7355482;39;21236;31
2023/06/03 20:45:49;;;;;;;4.82;2.20;;;;;;;21.49;37.89;99180.16;7378441;39;20271;31
2023/06/03 20:51:06;;;;;;;4.63;2.60;;;;;;;21.52;38.84;99185.16;7415244;39;20326;31
2023/06/03 20:56:40;;;;;;;2.74;1.98;;;;;;;21.39;38.77;99176.31;7460791;39;20304;31
2023/06/03 21:02:10;;;;;;;4.72;2.12;;;;;;;21.29;38.09;99185.13;7383282;39;20343;31
2023/06/03 21:07:26;;;;;;;3.23;1.87;;;;;;;21.27;38.54;99187.28;7333814;39;20240;31
2023/06/03 21:12:59;;;;;;;4.13;2.00;;;;;;;21.15;37.49;99191.09;7357248;39;20335;31
2023/06/03 21:18:32;;;;;;;4.00;1.90;;;;;;;21.07;37.43;99193.03;7335538;39;20271;31
2023/06/03 21:23:52;;;;;;;3.75;1.90;;;;;;;21.14;37.78;99195.72;7332140;39;20247;31
2023/06/03 21:29:27;;;;;;;3.28;1.85;;;;;;;21.01;37.17;99195.91;7397923;39;20265;31
2023/06/03 21:34:57;;;;;;;3.95;2.12;;;;;;;20.85;38.05;99199.28;7387859;39;20239;31
2023/06/03 21:40:15;;;;;;;4.55;1.70;;;;;;;20.84;37.33;99190.25;7325245;39;20260;31
2023/06/03 21:45:36;;;;;;;3.58;2.03;;;;;;;20.84;37.94;99200.37;7376755;39;20298;31
2023/06/03 21:51:08;;;;;;;4.93;2.22;;;;;;;20.68;37.96;99201.84;7411485;39;20422;31
2023/06/03 22:01:44;;;;;;;5.38;1.88;;;;;;;20.38;37.51;99206.44;7416807;39;20274;31
2023/06/03 22:12:19;;;;;;;5.93;2.05;;;;;;;20.27;38.65;99210.78;7381611;39;20333;31
2023/06/03 22:22:53;;;;;;;5.40;1.97;;;;;;;20.17;38.51;99205.00;7385365;39;20265;31
2023/06/03 22:28:26;;;;;;;3.85;1.77;;;;;;;20.16;37.67;99206.88;7358537;39;20271;31
2023/06/03 22:33:58;;;;;;;5.35;2.10;;;;;;;20.14;38.94;99200.78;7380344;39;20239;31
2023/06/03 22:39:30;;;;;;;4.05;2.00;;;;;;;20.17;38.96;99196.78;7332712;39;20266;31
2023/06/03 22:45:01;;;;;;;3.17;1.93;;;;;;;20.06;38.20;99198.38;7303464;39;20333;31
2023/06/03 22:50:22;;;;;;;3.10;2.12;;;;;;;20.10;39.84;99199.56;7331214;39;20236;31
2023/06/03 22:55:53;;;;;;;3.83;2.10;;;;;;;20.20;39.01;99194.41;7388276;39;20282;31
2023/06/03 23:01:29;;;;;;;4.34;1.80;;;;;;;20.09;39.44;99197.09;7404116;39;20250;31
2023/06/03 23:07:01;;;;;;;4.03;2.03;;;;;;;19.98;38.81;99190.47;7421606;39;20261;31
2023/06/03 23:12:19;;;;;;;3.30;2.30;;;;;;;19.98;39.93;99195.09;7440250;39;20238;31
2023/06/03 23:17:54;;;;;;;5.20;2.08;;;;;;;19.88;39.99;99183.84;7232512;39;22198;31
2023/06/03 23:23:12;;;;;;;2.92;2.05;;;;;;;19.65;40.72;99182.62;7405512;39;20246;31
2023/06/03 23:28:29;;;;;;;3.85;2.10;;;;;;;19.62;40.35;99183.03;7375358;39;20233;31
2023/06/03 23:34:02;;;;;;;3.97;2.27;;;;;;;19.63;40.23;99189.34;7377896;39;21551;31
2023/06/03 23:39:34;;;;;;;2.53;1.90;;;;;;;19.63;40.71;99190.19;7389211;39;20231;31
2023/06/03 23:45:09;;;;;;;5.97;2.30;;;;;;;19.36;40.48;99184.09;7437677;39;20353;31
2023/06/03 23:55:44;;;;;;;4.78;2.15;;;;;;;19.24;40.32;99174.09;7418313;39;20395;31
